Time;durP1;ratioP1;P1;durP2;ratioP2;P2;SDS_P1;SDS_P2;PMS_P1;PMS_P2;Temp;Humidity;BMP_temperature;BMP_pressure;BME280_temperature;BME280_humidity;BME280_pressure;Samples;Min_cycle;Max_cycle;Signal;HPM_P1;HPM_P2
2023/05/16 00:02:15;;;;;;;8.57;7.47;;;10.00;99.90;;;;;;5110919;28;20177;-73
2023/05/16 00:04:41;;;;;;;11.90;7.77;;;9.90;99.90;;;;;;5110918;28;20218;-73
2023/05/16 00:07:06;;;;;;;6.33;5.67;;;9.90;99.90;;;;;;5110901;28;20466;-73
2023/05/16 00:09:32;;;;;;;10.20;7.63;;;9.90;99.90;;;;;;5129527;27;20775;-73
2023/05/16 00:11:58;;;;;;;8.33;6.77;;;9.90;99.90;;;;;;5129221;28;20403;-71
2023/05/16 00:14:25;;;;;;;8.67;7.17;;;9.90;99.90;;;;;;5129252;28;20194;-72
2023/05/16 00:16:57;;;;;;;6.97;6.20;;;9.90;99.90;;;;;;5128902;27;20433;-71
2023/05/16 00:20:22;;;;;;;8.10;6.67;;;9.80;99.90;;;;;;5129031;28;20419;-71
2023/05/16 00:22:47;;;;;;;7.63;6.10;;;9.70;99.90;;;;;;5110617;28;20799;-72
2023/05/16 00:25:13;;;;;;;8.20;6.20;;;9.70;99.90;;;;;;5129137;27;20416;-72
2023/05/16 00:27:38;;;;;;;7.03;6.20;;;9.60;99.90;;;;;;5133007;27;20634;-71
2023/05/16 00:30:05;;;;;;;10.47;7.10;;;9.50;99.90;;;;;;5133100;27;20214;-73
2023/05/16 00:32:31;;;;;;;7.50;6.20;;;9.50;99.90;;;;;;5133023;27;20275;-73
2023/05/16 00:34:56;;;;;;;7.73;6.10;;;9.50;99.90;;;;;;5132405;27;20497;-72
2023/05/16 00:37:22;;;;;;;6.43;5.77;;;9.50;99.90;;;;;;5132420;27;20737;-72
2023/05/16 00:39:47;;;;;;;8.53;7.20;;;9.50;99.90;;;;;;5132653;27;20215;-72
2023/05/16 00:42:14;;;;;;;6.37;5.47;;;9.60;99.90;;;;;;5132047;27;20197;-72
2023/05/16 00:44:40;;;;;;;6.57;5.83;;;9.60;99.90;;;;;;5132182;27;20177;-72
2023/05/16 00:47:05;;;;;;;6.00;5.40;;;9.60;99.90;;;;;;5113761;27;20801;-73
2023/05/16 00:49:31;;;;;;;7.90;5.87;;;9.40;99.90;;;;;;5132095;27;20423;-74
2023/05/16 00:51:57;;;;;;;6.20;5.57;;;9.50;99.90;;;;;;5132063;27;20181;-73
2023/05/16 00:54:25;;;;;;;10.27;5.80;;;9.50;99.90;;;;;;5132010;27;20327;-73
2023/05/16 00:56:51;;;;;;;7.60;5.70;;;9.50;99.90;;;;;;5112904;27;20453;-73
2023/05/16 00:59:18;;;;;;;7.70;5.93;;;9.50;99.90;;;;;;5132001;27;20551;-72
2023/05/16 01:01:46;;;;;;;7.27;6.07;;;9.60;99.90;;;;;;5131808;27;20427;-72
2023/05/16 01:04:13;;;;;;;13.07;6.70;;;9.50;99.90;;;;;;5131703;27;20943;-71
2023/05/16 01:06:38;;;;;;;6.17;5.57;;;9.50;99.90;;;;;;5131491;27;20939;-73
2023/05/16 01:09:05;;;;;;;12.00;7.30;;;9.30;99.90;;;;;;5132062;27;20432;-72
2023/05/16 01:11:49;;;;;;;7.53;6.67;;;9.30;99.90;;;;;;5131338;27;20210;-72
2023/05/16 01:14:24;;;;;;;8.90;6.67;;;9.40;99.90;;;;;;5131312;27;20416;-72
2023/05/16 01:17:28;;;;;;;8.50;7.20;;;9.50;99.90;;;;;;5131268;27;20438;-72
2023/05/16 01:20:10;;;;;;;9.90;6.83;;;9.50;99.90;;;;;;5131231;27;20439;-72
2023/05/16 01:22:47;;;;;;;7.77;6.33;;;9.50;99.90;;;;;;5131301;27;20471;-72
2023/05/16 01:25:49;;;;;;;8.30;6.60;;;9.70;99.90;;;;;;5131128;27;20411;-72
2023/05/16 01:28:16;;;;;;;11.77;7.27;;;9.80;99.90;;;;;;5131656;27;20419;-72
2023/05/16 01:30:42;;;;;;;10.83;8.10;;;9.80;99.90;;;;;;5112246;27;20475;-72
2023/05/16 01:33:08;;;;;;;8.73;7.80;;;9.70;99.90;;;;;;5131101;27;20415;-72
2023/05/16 01:35:42;;;;;;;9.17;7.70;;;9.70;99.90;;;;;;5130851;27;20523;-72
2023/05/16 01:38:23;;;;;;;13.53;9.53;;;9.80;99.90;;;;;;5130426;27;20426;-72
2023/05/16 01:40:55;;;;;;;10.40;8.93;;;9.80;99.90;;;;;;5130705;27;20416;-72
2023/05/16 01:43:29;;;;;;;13.33;10.23;;;9.80;99.90;;;;;;5112141;27;20460;-72
2023/05/16 01:46:02;;;;;;;12.20;9.90;;;9.90;99.90;;;;;;5130809;27;21004;-72
2023/05/16 01:48:35;;;;;;;13.40;9.87;;;9.90;99.90;;;;;;5112269;27;20870;-72
2023/05/16 01:51:02;;;;;;;11.40;9.23;;;10.00;99.90;;;;;;5130577;27;20503;-72
2023/05/16 01:53:35;;;;;;;17.43;11.50;;;10.00;99.90;;;;;;5130618;27;20528;-72
2023/05/16 01:56:02;;;;;;;14.20;10.90;;;10.10;99.90;;;;;;5130613;27;20423;-72
2023/05/16 01:58:31;;;;;;;15.37;11.13;;;10.10;99.90;;;;;;5130645;27;20914;-72
2023/05/16 02:01:06;;;;;;;14.80;11.07;;;10.20;99.90;;;;;;5130509;27;20418;-72
2023/05/16 02:03:32;;;;;;;16.97;11.97;;;10.20;99.90;;;;;;5130389;27;20472;-72
2023/05/16 02:05:57;;;;;;;62.60;12.10;;;10.20;99.90;;;;;;5130322;27;20444;-73
2023/05/16 02:08:25;;;;;;;18.80;12.90;;;10.30;99.90;;;;;;5130397;27;20428;-73
2023/05/16 02:10:51;;;;;;;17.57;11.60;;;10.40;99.90;;;;;;5130198;27;20585;-73
2023/05/16 02:13:17;;;;;;;17.30;12.10;;;10.40;99.90;;;;;;5130493;27;20472;-73
2023/05/16 02:15:42;;;;;;;12.70;9.70;;;10.50;99.90;;;;;;5111238;27;20987;-73
2023/05/16 02:18:08;;;;;;;15.10;8.93;;;10.50;99.90;;;;;;5130667;27;20187;-73
2023/05/16 02:20:34;;;;;;;13.17;9.90;;;10.50;99.90;;;;;;5111715;27;20652;-72
2023/05/16 02:23:01;;;;;;;12.87;10.37;;;10.60;99.90;;;;;;5130270;27;20183;-73
2023/05/16 02:25:27;;;;;;;12.77;10.40;;;10.60;99.90;;;;;;5130280;27;20444;-73
2023/05/16 02:27:53;;;;;;;12.83;10.20;;;10.50;99.90;;;;;;5130203;27;20466;-73
2023/05/16 02:30:18;;;;;;;16.30;10.53;;;10.50;99.90;;;;;;5130648;27;20715;-73
2023/05/16 02:32:44;;;;;;;16.13;11.80;;;10.40;99.90;;;;;;5129953;27;20182;-72
2023/05/16 02:35:10;;;;;;;14.60;11.20;;;10.40;99.90;;;;;;5130322;27;20189;-72
2023/05/16 02:37:36;;;;;;;13.60;10.70;;;10.50;99.90;;;;;;5130144;27;20191;-73
2023/05/16 02:40:06;;;;;;;16.23;11.23;;;10.50;99.90;;;;;;5130287;27;20514;-73
2023/05/16 02:42:32;;;;;;;15.47;11.30;;;10.60;99.90;;;;;;5129929;27;20534;-73
2023/05/16 02:44:58;;;;;;;14.43;11.50;;;10.70;99.90;;;;;;5129823;27;20507;-73
2023/05/16 02:47:23;;;;;;;13.57;10.70;;;10.70;99.90;;;;;;5094150;27;20990;-72
2023/05/16 02:49:51;;;;;;;15.50;12.13;;;10.80;99.90;;;;;;5128574;27;20676;-72
2023/05/16 02:52:17;;;;;;;12.03;10.50;;;10.80;99.90;;;;;;5111042;27;20536;-72
2023/05/16 02:54:42;;;;;;;14.27;10.60;;;10.90;99.90;;;;;;5129622;27;21023;-72
2023/05/16 02:57:08;;;;;;;15.83;11.73;;;10.90;99.90;;;;;;5129517;27;20434;-73
2023/05/16 02:59:35;;;;;;;16.73;11.97;;;10.90;99.90;;;;;;5129740;27;20710;-73
2023/05/16 03:02:00;;;;;;;18.77;14.53;;;10.90;99.90;;;;;;5110836;28;20282;-73
2023/05/16 03:04:26;;;;;;;28.50;19.20;;;10.90;99.90;;;;;;5129397;27;20502;-73
2023/05/16 03:06:52;;;;;;;32.63;22.53;;;10.90;99.90;;;;;;5129477;27;20247;-73
2023/05/16 03:09:18;;;;;;;33.73;23.17;;;11.00;99.90;;;;;;5129658;27;20192;-73
2023/05/16 03:11:44;;;;;;;36.73;23.50;;;11.10;99.90;;;;;;5129620;27;20206;-73
2023/05/16 03:14:09;;;;;;;36.47;23.40;;;11.10;99.90;;;;;;5111362;28;20425;-73
2023/05/16 03:16:37;;;;;;;34.77;23.60;;;11.20;99.90;;;;;;5130330;27;20440;-73
2023/05/16 03:19:06;;;;;;;35.33;24.90;;;11.20;99.90;;;;;;5111456;28;20718;-73
2023/05/16 03:21:31;;;;;;;40.30;27.17;;;11.20;99.90;;;;;;5130121;28;20420;-73
2023/05/16 03:23:57;;;;;;;39.40;26.47;;;11.20;99.90;;;;;;5129941;28;20480;-72
2023/05/16 03:26:26;;;;;;;33.33;23.93;;;11.20;99.90;;;;;;5129714;27;20218;-72
2023/05/16 03:28:52;;;;;;;44.10;25.87;;;11.30;99.90;;;;;;5129788;27;20194;-73
2023/05/16 03:31:18;;;;;;;39.30;25.00;;;11.30;99.90;;;;;;5129218;27;20468;-73
2023/05/16 03:33:43;;;;;;;39.00;24.20;;;11.40;99.90;;;;;;5110901;27;20218;-73
2023/05/16 03:36:10;;;;;;;39.13;24.90;;;11.30;99.90;;;;;;5110642;28;20458;-73
2023/05/16 03:38:35;;;;;;;35.90;25.40;;;11.30;99.90;;;;;;5129241;28;20189;-72
2023/05/16 03:41:01;;;;;;;41.57;25.90;;;11.30;99.90;;;;;;5128929;28;20421;-72
2023/05/16 03:43:27;;;;;;;39.43;26.33;;;11.30;99.90;;;;;;5129082;28;20440;-72
2023/05/16 03:45:53;;;;;;;35.50;24.20;;;11.30;99.90;;;;;;5129003;27;20216;-73
2023/05/16 03:48:18;;;;;;;39.17;22.90;;;11.30;99.90;;;;;;5110570;27;20734;-72
2023/05/16 03:50:44;;;;;;;36.40;21.20;;;11.30;99.90;;;;;;5128940;28;20628;-72
2023/05/16 03:53:10;;;;;;;31.47;21.73;;;11.30;99.90;;;;;;5129103;28;20204;-73
2023/05/16 03:55:36;;;;;;;29.27;20.80;;;11.30;99.90;;;;;;5110205;28;20475;-73
2023/05/16 03:58:02;;;;;;;31.00;20.77;;;11.20;99.90;;;;;;5129038;28;20884;-73
2023/05/16 04:00:28;;;;;;;29.37;20.00;;;11.20;99.90;;;;;;5128830;27;20184;-73
2023/05/16 04:02:53;;;;;;;33.07;21.00;;;11.30;99.90;;;;;;5132743;27;20207;-73
2023/05/16 04:05:19;;;;;;;30.70;20.50;;;11.30;99.90;;;;;;5132828;27;20271;-73
2023/05/16 04:07:45;;;;;;;28.33;21.40;;;11.30;99.90;;;;;;5132763;27;20190;-74
2023/05/16 04:10:12;;;;;;;32.70;21.73;;;11.30;99.90;;;;;;5114182;27;20597;-73
2023/05/16 04:12:38;;;;;;;40.50;25.13;;;11.30;99.90;;;;;;5097338;27;20624;-73
2023/05/16 04:15:05;;;;;;;39.10;25.83;;;11.30;99.90;;;;;;5132804;27;20416;-72
2023/05/16 04:17:31;;;;;;;47.23;28.90;;;11.30;99.90;;;;;;5113786;27;20199;-73
2023/05/16 04:19:57;;;;;;;52.63;29.83;;;11.40;99.90;;;;;;5132731;27;20942;-72
2023/05/16 04:22:23;;;;;;;44.50;27.27;;;11.40;99.90;;;;;;5132910;27;20184;-72
2023/05/16 04:24:49;;;;;;;39.07;25.10;;;11.40;99.90;;;;;;5133949;27;20196;-72
2023/05/16 04:27:15;;;;;;;34.00;24.03;;;11.30;99.90;;;;;;5132828;27;20489;-72
2023/05/16 04:29:41;;;;;;;42.80;22.90;;;11.30;99.90;;;;;;5132779;27;20457;-71
2023/05/16 04:32:07;;;;;;;38.60;23.33;;;11.30;99.90;;;;;;5132709;27;20191;-72
2023/05/16 04:34:36;;;;;;;41.40;24.03;;;11.30;99.90;;;;;;5112715;27;20183;-73
2023/05/16 04:37:06;;;;;;;42.30;24.93;;;11.30;99.90;;;;;;5112458;27;20472;-73
2023/05/16 04:39:32;;;;;;;42.47;26.57;;;11.30;99.90;;;;;;5131274;27;21021;-73
2023/05/16 04:41:58;;;;;;;42.33;27.23;;;11.30;99.90;;;;;;5130785;27;20438;-72
2023/05/16 04:44:25;;;;;;;59.87;33.10;;;11.40;99.90;;;;;;5131060;27;20495;-72
2023/05/16 04:46:52;;;;;;;61.23;34.07;;;11.40;99.90;;;;;;5130913;27;20318;-72
2023/05/16 04:49:18;;;;;;;58.43;35.37;;;11.40;99.90;;;;;;5131020;27;20923;-72
2023/05/16 04:51:43;;;;;;;67.47;37.10;;;11.50;99.90;;;;;;5095147;27;20562;-72
2023/05/16 04:54:09;;;;;;;59.03;35.40;;;11.50;99.90;;;;;;5130822;27;20522;-72
2023/05/16 04:56:35;;;;;;;65.17;37.20;;;11.50;99.90;;;;;;5130831;27;20248;-73
2023/05/16 04:59:01;;;;;;;60.33;38.53;;;11.50;99.90;;;;;;5130924;27;20416;-71
2023/05/16 05:01:27;;;;;;;51.43;34.60;;;11.50;99.90;;;;;;5130936;27;20214;-71
2023/05/16 05:03:52;;;;;;;48.10;30.83;;;11.50;99.90;;;;;;5130806;27;20420;-73
2023/05/16 05:06:18;;;;;;;49.37;29.13;;;11.50;99.90;;;;;;5130932;27;20299;-72
2023/05/16 05:08:44;;;;;;;43.00;28.87;;;11.50;99.90;;;;;;5130589;27;20265;-72
2023/05/16 05:11:10;;;;;;;52.53;34.07;;;11.50;99.90;;;;;;5112295;27;20203;-72
2023/05/16 05:13:36;;;;;;;61.33;35.20;;;11.60;99.90;;;;;;5129739;27;20492;-71
2023/05/16 05:16:03;;;;;;;60.07;37.10;;;11.60;99.90;;;;;;5130500;27;20441;-73
2023/05/16 05:18:29;;;;;;;64.73;37.50;;;11.50;99.90;;;;;;5112062;27;20633;-72
2023/05/16 05:20:55;;;;;;;58.27;35.00;;;11.60;99.90;;;;;;5112027;27;20456;-73
2023/05/16 05:23:20;;;;;;;55.13;34.83;;;11.50;99.90;;;;;;5130658;27;20489;-73
2023/05/16 05:25:46;;;;;;;54.00;33.90;;;11.50;99.90;;;;;;5112347;27;20286;-73
2023/05/16 05:28:12;;;;;;;53.03;29.67;;;11.50;99.90;;;;;;5130504;27;20192;-71
2023/05/16 05:30:37;;;;;;;40.20;27.13;;;11.60;99.90;;;;;;5130515;27;20713;-73
2023/05/16 05:33:03;;;;;;;45.77;28.40;;;11.40;99.90;;;;;;5130833;27;20603;-73
2023/05/16 05:35:29;;;;;;;52.70;29.50;;;11.50;99.90;;;;;;5111847;27;20186;-72
2023/05/16 05:37:54;;;;;;;49.67;34.23;;;11.50;99.90;;;;;;5111886;27;20184;-74
2023/05/16 05:40:20;;;;;;;58.53;34.83;;;11.50;99.90;;;;;;5130105;27;20222;-73
2023/05/16 05:42:45;;;;;;;55.00;34.23;;;11.60;99.90;;;;;;5129977;27;20295;-73
2023/05/16 05:45:11;;;;;;;52.70;33.20;;;11.60;99.90;;;;;;5111496;27;20191;-73
2023/05/16 05:47:37;;;;;;;57.37;37.33;;;11.60;99.90;;;;;;5130360;27;20643;-73
2023/05/16 05:50:04;;;;;;;67.23;35.60;;;11.60;99.90;;;;;;5130605;27;20232;-73
2023/05/16 05:52:29;;;;;;;67.47;37.47;;;11.70;99.90;;;;;;5112405;27;20972;-74
2023/05/16 05:54:56;;;;;;;63.70;38.40;;;11.70;99.90;;;;;;5130770;27;20432;-72
2023/05/16 05:57:22;;;;;;;65.43;36.17;;;11.70;99.90;;;;;;5130455;27;20240;-72
2023/05/16 05:59:47;;;;;;;67.10;38.33;;;11.80;99.90;;;;;;5130526;27;20793;-71
2023/05/16 06:02:13;;;;;;;63.10;36.37;;;11.70;99.90;;;;;;5111662;27;20266;-71
2023/05/16 06:04:41;;;;;;;65.13;37.67;;;11.70;99.90;;;;;;5130051;27;20188;-74
2023/05/16 06:07:07;;;;;;;62.60;33.50;;;11.70;99.90;;;;;;5130362;27;20706;-71
2023/05/16 06:09:32;;;;;;;71.43;39.23;;;11.60;99.90;;;;;;5130154;27;20420;-73
2023/05/16 06:11:58;;;;;;;70.33;39.30;;;11.70;99.90;;;;;;5130064;27;20237;-73
2023/05/16 06:14:24;;;;;;;62.50;36.97;;;11.70;99.90;;;;;;5111199;27;20194;-73
2023/05/16 06:16:50;;;;;;;69.40;37.67;;;11.60;99.90;;;;;;5130050;27;20429;-73
2023/05/16 06:19:16;;;;;;;67.63;39.70;;;11.60;99.90;;;;;;5130233;27;20187;-71
2023/05/16 06:21:42;;;;;;;77.40;38.43;;;11.60;99.90;;;;;;5130149;27;20264;-70
2023/05/16 06:24:08;;;;;;;76.53;39.17;;;11.60;99.90;;;;;;5129275;27;20191;-71
2023/05/16 06:26:35;;;;;;;70.07;38.63;;;11.50;99.90;;;;;;5129681;27;20446;-72
2023/05/16 06:29:01;;;;;;;63.33;37.50;;;11.50;99.90;;;;;;5129347;27;20505;-72
2023/05/16 06:31:26;;;;;;;57.80;33.93;;;11.50;99.90;;;;;;5129143;27;20621;-72
2023/05/16 06:33:52;;;;;;;68.13;36.70;;;11.60;99.90;;;;;;5129298;27;20236;-72
2023/05/16 06:36:17;;;;;;;58.20;35.77;;;11.60;99.90;;;;;;5129295;27;20228;-71
2023/05/16 06:38:43;;;;;;;64.43;36.83;;;11.50;99.90;;;;;;5129029;27;20682;-71
2023/05/16 06:41:08;;;;;;;68.40;35.67;;;11.50;99.90;;;;;;5110137;27;20553;-71
2023/05/16 06:43:34;;;;;;;68.97;36.90;;;11.60;99.90;;;;;;5128971;27;20189;-71
2023/05/16 06:46:00;;;;;;;57.53;34.47;;;11.60;99.90;;;;;;5128951;27;20717;-72
2023/05/16 06:48:25;;;;;;;65.83;34.50;;;11.60;99.90;;;;;;5128415;27;20197;-72
2023/05/16 06:50:51;;;;;;;64.03;36.60;;;11.50;99.90;;;;;;5128642;27;20212;-71
2023/05/16 06:53:17;;;;;;;69.83;38.37;;;11.60;99.90;;;;;;5109963;27;20186;-71
2023/05/16 06:55:43;;;;;;;78.90;37.60;;;11.60;99.90;;;;;;5128342;27;20207;-72
2023/05/16 06:58:09;;;;;;;56.80;35.87;;;11.60;99.90;;;;;;5128439;27;20449;-72
2023/05/16 07:00:35;;;;;;;79.27;38.00;;;11.50;99.90;;;;;;5128629;27;20457;-73
2023/05/16 07:03:02;;;;;;;63.43;36.60;;;11.60;99.90;;;;;;5109718;27;20759;-73
2023/05/16 07:05:28;;;;;;;59.00;35.47;;;11.60;99.90;;;;;;5128428;27;20416;-73
2023/05/16 07:07:53;;;;;;;60.60;36.47;;;11.60;99.90;;;;;;5110057;28;20456;-73
2023/05/16 07:10:19;;;;;;;57.70;34.50;;;11.70;99.90;;;;;;5128341;27;20213;-73
2023/05/16 07:12:45;;;;;;;67.60;34.97;;;11.80;99.90;;;;;;5128510;27;20184;-72
2023/05/16 07:15:11;;;;;;;62.73;37.40;;;11.80;99.90;;;;;;5109853;28;20502;-73
2023/05/16 07:17:37;;;;;;;55.10;32.80;;;11.90;99.90;;;;;;5127857;28;20635;-72
2023/05/16 07:20:03;;;;;;;57.10;35.67;;;11.90;99.90;;;;;;5127946;28;20404;-73
2023/05/16 07:22:29;;;;;;;55.67;32.30;;;11.90;99.90;;;;;;5109393;28;20177;-73
2023/05/16 07:24:56;;;;;;;48.53;32.73;;;11.90;99.90;;;;;;5109214;28;20433;-73
2023/05/16 07:27:22;;;;;;;51.43;31.70;;;11.90;99.90;;;;;;5108929;28;20581;-69
2023/05/16 07:29:47;;;;;;;47.80;29.77;;;11.90;99.90;;;;;;5127574;28;20419;-72
2023/05/16 07:32:13;;;;;;;49.17;31.40;;;11.70;99.90;;;;;;5092371;28;20952;-72
2023/05/16 07:34:38;;;;;;;51.43;32.00;;;11.80;99.90;;;;;;5127772;28;20217;-73
2023/05/16 07:37:06;;;;;;;44.13;29.33;;;11.80;99.90;;;;;;5130183;27;20201;-72
2023/05/16 07:39:32;;;;;;;47.83;31.40;;;11.80;99.90;;;;;;5113032;27;20210;-72
2023/05/16 07:41:57;;;;;;;46.10;29.60;;;11.90;99.90;;;;;;5131954;27;20504;-71
2023/05/16 07:44:23;;;;;;;46.00;27.60;;;11.80;99.90;;;;;;5113824;27;20194;-71
2023/05/16 07:46:49;;;;;;;40.47;27.10;;;11.80;99.90;;;;;;5113446;27;20222;-72
2023/05/16 07:49:15;;;;;;;35.87;26.00;;;11.80;99.90;;;;;;5132013;27;20191;-72
2023/05/16 07:51:40;;;;;;;40.40;26.80;;;11.70;99.90;;;;;;5131520;27;20570;-73
2023/05/16 07:54:06;;;;;;;42.10;27.17;;;11.70;99.90;;;;;;5131791;27;20183;-72
2023/05/16 07:56:32;;;;;;;42.40;27.83;;;11.70;99.90;;;;;;5131582;27;20613;-71
2023/05/16 07:58:58;;;;;;;35.47;25.23;;;11.70;99.90;;;;;;5131489;27;20200;-72
2023/05/16 08:01:24;;;;;;;37.97;25.83;;;11.80;99.90;;;;;;5131874;27;20191;-72
2023/05/16 08:03:50;;;;;;;35.60;25.37;;;11.70;99.90;;;;;;5131579;27;20417;-73
2023/05/16 08:06:16;;;;;;;39.10;26.77;;;11.70;99.90;;;;;;5131540;27;20259;-71
2023/05/16 08:08:41;;;;;;;41.63;26.30;;;11.70;99.90;;;;;;5131706;27;20421;-71
2023/05/16 08:11:07;;;;;;;45.00;26.57;;;11.60;99.90;;;;;;5131419;27;20217;-72
2023/05/16 08:13:32;;;;;;;39.27;27.93;;;11.60;99.90;;;;;;5113381;27;20250;-73
2023/05/16 08:15:58;;;;;;;37.07;25.53;;;11.70;99.90;;;;;;5131746;27;20286;-72
2023/05/16 08:18:24;;;;;;;42.70;25.60;;;11.70;99.90;;;;;;5131950;27;20180;-73
2023/05/16 08:20:50;;;;;;;40.10;25.87;;;11.70;99.90;;;;;;5113441;27;20215;-72
2023/05/16 08:23:15;;;;;;;39.33;26.43;;;11.70;99.90;;;;;;5114074;27;20587;-71
2023/05/16 08:25:41;;;;;;;39.20;26.67;;;11.70;99.90;;;;;;5132250;27;20440;-71
2023/05/16 08:28:07;;;;;;;37.57;25.07;;;11.70;99.90;;;;;;5132073;27;20539;-74
2023/05/16 08:30:32;;;;;;;38.70;24.67;;;11.70;99.90;;;;;;5131992;27;20671;-71
2023/05/16 08:32:58;;;;;;;35.70;24.33;;;11.60;99.90;;;;;;5131720;27;20274;-72
2023/05/16 08:35:23;;;;;;;36.20;24.33;;;11.70;99.90;;;;;;5112649;27;20183;-72
2023/05/16 08:37:49;;;;;;;32.63;22.70;;;11.70;99.90;;;;;;5131436;27;20293;-74
2023/05/16 08:40:15;;;;;;;35.73;24.13;;;11.80;99.90;;;;;;5131522;27;20194;-72
2023/05/16 08:42:41;;;;;;;33.40;22.33;;;11.80;99.90;;;;;;5131103;27;20206;-71
2023/05/16 08:45:07;;;;;;;33.83;21.67;;;11.80;99.90;;;;;;5130777;27;20783;-71
2023/05/16 08:47:35;;;;;;;30.40;20.87;;;11.70;99.90;;;;;;5130744;27;20635;-72
2023/05/16 08:50:03;;;;;;;31.83;21.40;;;11.70;99.90;;;;;;5130870;27;20421;-71
2023/05/16 08:52:30;;;;;;;29.90;20.77;;;11.80;99.90;;;;;;5112910;27;20798;-73
2023/05/16 08:55:00;;;;;;;32.83;21.97;;;11.80;99.90;;;;;;5131037;27;20413;-73
2023/05/16 08:57:27;;;;;;;37.57;22.33;;;11.70;99.90;;;;;;5112587;27;20442;-73
2023/05/16 08:59:55;;;;;;;34.90;22.90;;;11.70;99.90;;;;;;5130537;27;20452;-72
2023/05/16 09:02:22;;;;;;;34.83;23.23;;;11.70;99.90;;;;;;5111750;27;20436;-73
2023/05/16 09:04:48;;;;;;;27.10;20.47;;;11.70;99.90;;;;;;5130646;27;20413;-74
2023/05/16 09:07:14;;;;;;;31.63;21.50;;;11.70;99.90;;;;;;5130771;27;20443;-73
2023/05/16 09:09:40;;;;;;;28.93;20.17;;;11.60;99.90;;;;;;5130519;27;20864;-74
2023/05/16 09:12:07;;;;;;;26.80;20.30;;;11.60;99.90;;;;;;5130488;27;20525;-72
2023/05/16 09:14:32;;;;;;;34.53;21.90;;;11.60;99.90;;;;;;5112106;27;20515;-73
2023/05/16 09:17:05;;;;;;;25.10;19.10;;;11.50;99.90;;;;;;5130565;27;20523;-73
2023/05/16 09:19:41;;;;;;;27.90;20.57;;;11.50;99.90;;;;;;5130573;27;20175;-72
2023/05/16 09:22:12;;;;;;;24.90;19.07;;;11.50;99.90;;;;;;5130494;27;20799;-73
2023/05/16 09:24:42;;;;;;;28.07;18.30;;;11.40;99.90;;;;;;5130450;27;20746;-72
2023/05/16 09:27:13;;;;;;;25.37;18.10;;;11.50;99.90;;;;;;5130488;27;20446;-72
2023/05/16 09:29:42;;;;;;;24.70;18.23;;;11.40;99.90;;;;;;5111569;27;20557;-73
2023/05/16 09:32:16;;;;;;;25.57;17.93;;;11.40;99.90;;;;;;5130465;27;20464;-72
2023/05/16 09:34:47;;;;;;;22.50;17.07;;;11.40;99.90;;;;;;5130057;27;20908;-72
2023/05/16 09:37:14;;;;;;;22.03;17.03;;;11.40;99.90;;;;;;5094443;27;20445;-72
2023/05/16 09:39:48;;;;;;;22.30;18.07;;;11.30;99.90;;;;;;5130300;27;20776;-72
2023/05/16 09:42:15;;;;;;;26.10;18.37;;;11.30;99.90;;;;;;5130040;27;20430;-72
2023/05/16 09:44:52;;;;;;;25.43;18.60;;;11.40;99.90;;;;;;5129927;27;20425;-72
2023/05/16 09:47:19;;;;;;;23.00;17.37;;;11.40;99.90;;;;;;5130120;27;20475;-72
2023/05/16 09:49:46;;;;;;;22.97;17.53;;;11.40;99.90;;;;;;5129929;27;20730;-72
2023/05/16 09:52:12;;;;;;;27.70;18.30;;;11.40;99.90;;;;;;5129497;27;20561;-73
2023/05/16 09:54:38;;;;;;;24.83;18.80;;;11.40;99.90;;;;;;5129873;27;20470;-72
2023/05/16 09:57:04;;;;;;;28.37;17.90;;;11.40;99.90;;;;;;5129577;27;20439;-72
2023/05/16 09:59:34;;;;;;;24.90;18.67;;;11.40;99.90;;;;;;5129511;27;20240;-72
2023/05/16 10:02:00;;;;;;;24.37;19.03;;;11.40;99.90;;;;;;5129554;27;20670;-72
2023/05/16 10:04:26;;;;;;;24.97;18.90;;;11.40;99.90;;;;;;5129848;27;20420;-72
2023/05/16 10:06:56;;;;;;;24.67;18.37;;;11.50;99.90;;;;;;5129379;27;20943;-73
2023/05/16 10:09:23;;;;;;;31.10;19.10;;;11.50;99.90;;;;;;5111628;27;20178;-72
2023/05/16 10:11:50;;;;;;;26.70;18.97;;;11.60;99.90;;;;;;5129193;27;20506;-72
2023/05/16 10:14:20;;;;;;;23.27;17.83;;;11.60;99.90;;;;;;5128914;27;20935;-73
2023/05/16 10:16:49;;;;;;;24.30;18.70;;;11.60;99.90;;;;;;5129276;27;20436;-72
2023/05/16 10:19:16;;;;;;;27.13;20.00;;;11.60;99.90;;;;;;5129106;27;20428;-72
2023/05/16 10:21:47;;;;;;;26.17;17.90;;;11.70;99.90;;;;;;5129408;27;20939;-71
2023/05/16 10:24:20;;;;;;;32.37;19.47;;;11.80;99.90;;;;;;5111062;27;20427;-73
2023/05/16 10:26:46;;;;;;;24.37;19.33;;;11.80;99.90;;;;;;5129378;27;20440;-73
2023/05/16 10:29:12;;;;;;;23.30;17.93;;;11.90;99.90;;;;;;5111871;27;20429;-72
2023/05/16 10:31:38;;;;;;;30.47;20.10;;;11.90;99.90;;;;;;5129669;27;20504;-72
2023/05/16 10:34:04;;;;;;;26.83;19.53;;;12.00;99.90;;;;;;5128989;27;20463;-72
2023/05/16 10:36:30;;;;;;;25.10;17.90;;;12.10;99.90;;;;;;5129033;27;20195;-72
2023/05/16 10:38:57;;;;;;;28.53;19.13;;;12.10;99.90;;;;;;5110342;27;20426;-73
2023/05/16 10:41:23;;;;;;;24.00;17.90;;;12.10;99.90;;;;;;5128641;27;20461;-73
2023/05/16 10:43:56;;;;;;;25.30;18.50;;;12.10;99.90;;;;;;5128808;27;20850;-72
2023/05/16 10:46:23;;;;;;;27.63;20.10;;;12.20;99.90;;;;;;5093169;27;20967;-72
2023/05/16 10:48:48;;;;;;;24.47;18.67;;;12.20;99.90;;;;;;5128422;27;20787;-72
2023/05/16 10:51:37;;;;;;;21.07;18.07;;;12.30;99.90;;;;;;5128593;27;20476;-72
2023/05/16 10:54:11;;;;;;;27.00;18.33;;;12.20;99.90;;;;;;5110430;27;20194;-71
2023/05/16 10:56:37;;;;;;;28.97;19.43;;;12.20;99.90;;;;;;5129082;27;20430;-73
2023/05/16 10:59:03;;;;;;;27.23;19.17;;;12.20;99.90;;;;;;5129116;27;20454;-73
2023/05/16 11:01:30;;;;;;;26.17;19.20;;;12.30;99.90;;;;;;5130902;27;20421;-73
2023/05/16 11:03:59;;;;;;;27.30;19.50;;;12.40;99.90;;;;;;5132897;27;20424;-73
2023/05/16 11:06:28;;;;;;;21.93;17.10;;;12.40;99.90;;;;;;5132433;27;20925;-73
2023/05/16 11:09:18;;;;;;;31.93;20.63;;;12.50;99.90;;;;;;5113667;27;20429;-73
2023/05/16 11:11:46;;;;;;;33.17;19.90;;;12.40;99.90;;;;;;5117520;27;20476;-73
2023/05/16 11:14:32;;;;;;;26.77;19.33;;;12.40;99.90;;;;;;5112840;28;20441;-73
2023/05/16 11:17:03;;;;;;;23.03;18.30;;;12.40;99.90;;;;;;5129901;27;20519;-73
2023/05/16 11:19:44;;;;;;;29.00;20.10;;;12.30;99.90;;;;;;5129675;28;20502;-74
2023/05/16 11:22:22;;;;;;;30.83;22.70;;;12.30;99.90;;;;;;5129628;28;20501;-72
2023/05/16 11:25:08;;;;;;;29.30;21.23;;;12.30;99.90;;;;;;5129273;28;20921;-72
2023/05/16 11:27:34;;;;;;;31.60;21.47;;;12.30;99.90;;;;;;5128837;27;20866;-73
2023/05/16 11:30:06;;;;;;;30.57;22.33;;;12.30;99.90;;;;;;5110290;28;20511;-73
2023/05/16 11:32:36;;;;;;;34.90;21.70;;;12.40;99.90;;;;;;5129044;28;20828;-73
2023/05/16 11:35:02;;;;;;;42.60;25.33;;;12.40;99.90;;;;;;5128764;28;20435;-72
2023/05/16 11:37:28;;;;;;;48.53;29.60;;;12.30;99.90;;;;;;5128447;27;20440;-72
2023/05/16 11:40:07;;;;;;;46.27;28.43;;;12.30;99.90;;;;;;5109845;28;20512;-72
2023/05/16 11:42:37;;;;;;;42.30;23.97;;;12.40;99.90;;;;;;5128978;28;20303;-72
2023/05/16 11:45:08;;;;;;;35.57;24.97;;;12.50;99.90;;;;;;5093097;28;20429;-72
2023/05/16 11:47:38;;;;;;;42.87;24.63;;;12.50;99.90;;;;;;5128408;27;20526;-72
2023/05/16 11:50:11;;;;;;;35.63;23.33;;;12.50;99.90;;;;;;5127987;28;20465;-72
2023/05/16 11:52:37;;;;;;;30.17;20.70;;;12.50;99.90;;;;;;5128523;28;20418;-72
2023/05/16 11:55:06;;;;;;;33.63;23.10;;;12.50;99.90;;;;;;5128380;28;20411;-72
2023/05/16 11:57:32;;;;;;;35.23;22.83;;;12.60;99.90;;;;;;5129061;27;20832;-72
2023/05/16 12:00:05;;;;;;;35.60;21.77;;;12.70;99.90;;;;;;5128447;28;20413;-73
2023/05/16 12:02:31;;;;;;;34.80;23.20;;;12.80;99.90;;;;;;5128733;28;20496;-72
2023/05/16 12:04:57;;;;;;;33.80;20.90;;;13.00;99.90;;;;;;5128666;28;20444;-73
2023/05/16 12:07:27;;;;;;;29.00;20.43;;;13.00;99.90;;;;;;5128349;27;20945;-72
2023/05/16 12:09:53;;;;;;;29.60;21.70;;;13.00;99.90;;;;;;5110315;27;20174;-73
2023/05/16 12:12:21;;;;;;;35.30;20.70;;;13.00;99.90;;;;;;5129191;28;20461;-72
2023/05/16 12:14:47;;;;;;;29.70;21.50;;;13.00;99.90;;;;;;5129710;27;20180;-72
2023/05/16 12:17:13;;;;;;;31.10;21.00;;;13.00;99.90;;;;;;5129765;27;20434;-73
2023/05/16 12:19:39;;;;;;;26.90;19.20;;;12.90;99.90;;;;;;5129425;28;20425;-72
2023/05/16 12:22:14;;;;;;;29.23;20.57;;;13.00;99.90;;;;;;5130087;27;20762;-72
2023/05/16 12:24:39;;;;;;;29.70;19.70;;;13.10;99.90;;;;;;5115682;27;20196;-73
2023/05/16 12:27:07;;;;;;;29.10;20.57;;;13.10;99.90;;;;;;5131093;27;20486;-72
2023/05/16 12:29:33;;;;;;;31.77;19.17;;;13.00;99.90;;;;;;5131115;27;20202;-73
2023/05/16 12:31:59;;;;;;;28.00;19.03;;;12.80;99.90;;;;;;5130894;27;20965;-73
2023/05/16 12:34:28;;;;;;;27.47;17.70;;;12.80;99.90;;;;;;5130830;27;20410;-73